Time;durP1;ratioP1;P1;durP2;ratioP2;P2;SDS_P1;SDS_P2;PMS_P1;PMS_P2;Temp;Humidity;BMP_temperature;BMP_pressure;BME280_temperature;BME280_humidity;BME280_pressure;Samples;Min_cycle;Max_cycle;Signal;HPM_P1;HPM_P2
2023/09/14 00:00:50;;;;;;;3.22;0.47;;;;;;;;;;4993127;28;20038;-72
2023/09/14 00:03:16;;;;;;;1.65;0.40;;;;;;;;;;4993690;28;20031;-72
2023/09/14 00:05:43;;;;;;;0.98;0.75;;;;;;;;;;4993508;28;20511;-72
2023/09/14 00:08:09;;;;;;;2.53;1.15;;;;;;;;;;4993454;28;20401;-72
2023/09/14 00:10:35;;;;;;;1.27;1.10;;;;;;;;;;4993901;28;20046;-72
2023/09/14 00:13:01;;;;;;;2.53;0.90;;;;;;;;;;4985199;28;20065;-72
2023/09/14 00:15:27;;;;;;;3.40;1.10;;;;;;;;;;4993591;28;20065;-72
2023/09/14 00:17:54;;;;;;;3.20;1.20;;;;;;;;;;4992379;28;20121;-72
2023/09/14 00:20:21;;;;;;;1.67;1.20;;;;;;;;;;4993838;28;20034;-72
2023/09/14 00:22:49;;;;;;;1.50;0.80;;;;;;;;;;4992982;28;20636;-72
2023/09/14 00:25:15;;;;;;;2.38;0.90;;;;;;;;;;4991612;28;20061;-72
2023/09/14 00:27:41;;;;;;;1.85;0.70;;;;;;;;;;4992916;28;20396;-72
2023/09/14 00:30:08;;;;;;;2.13;0.98;;;;;;;;;;4993577;28;20042;-72
2023/09/14 00:32:38;;;;;;;2.25;1.00;;;;;;;;;;4993682;28;20043;-72
2023/09/14 00:35:05;;;;;;;2.50;1.60;;;;;;;;;;4992768;28;20362;-72
2023/09/14 00:37:31;;;;;;;3.78;1.60;;;;;;;;;;4992762;28;20042;-72
2023/09/14 00:39:57;;;;;;;4.97;1.77;;;;;;;;;;4989475;28;20050;-72
2023/09/14 00:42:23;;;;;;;4.50;2.00;;;;;;;;;;4987365;28;20112;-72
2023/09/14 00:44:49;;;;;;;3.33;1.50;;;;;;;;;;4993345;28;20045;-72
2023/09/14 00:47:15;;;;;;;5.80;1.70;;;;;;;;;;4992810;28;20037;-72
2023/09/14 00:49:42;;;;;;;3.50;1.50;;;;;;;;;;4991460;28;20047;-72
2023/09/14 00:52:10;;;;;;;3.45;1.08;;;;;;;;;;4992720;28;20492;-72
2023/09/14 00:54:36;;;;;;;3.30;1.55;;;;;;;;;;4992913;28;20130;-72
2023/09/14 00:57:03;;;;;;;3.08;1.60;;;;;;;;;;4991452;28;20042;-72
2023/09/14 00:59:29;;;;;;;2.97;1.52;;;;;;;;;;4993226;28;20035;-72
2023/09/14 01:01:55;;;;;;;3.30;1.40;;;;;;;;;;4982991;28;20081;-72
2023/09/14 01:04:21;;;;;;;3.75;1.40;;;;;;;;;;4992435;28;20050;-72
2023/09/14 01:06:47;;;;;;;4.03;1.35;;;;;;;;;;4991290;28;20101;-72
2023/09/14 01:09:13;;;;;;;2.53;1.20;;;;;;;;;;4992701;28;20038;-72
2023/09/14 01:11:39;;;;;;;1.58;1.02;;;;;;;;;;4993078;28;20053;-72
2023/09/14 01:14:12;;;;;;;2.03;1.25;;;;;;;;;;4984445;28;20034;-72
2023/09/14 01:16:51;;;;;;;3.28;1.50;;;;;;;;;;4992519;28;20459;-72
2023/09/14 01:19:36;;;;;;;3.70;1.50;;;;;;;;;;4992445;28;20046;-72
2023/09/14 01:22:21;;;;;;;1.73;1.08;;;;;;;;;;4992884;28;20045;-72
2023/09/14 01:24:58;;;;;;;1.55;1.30;;;;;;;;;;4992249;28;20220;-72
2023/09/14 01:27:25;;;;;;;1.58;1.30;;;;;;;;;;4992742;28;20043;-72
2023/09/14 01:29:51;;;;;;;2.17;1.38;;;;;;;;;;4992326;28;20050;-72
2023/09/14 01:32:17;;;;;;;1.38;1.00;;;;;;;;;;4992229;28;20034;-72
2023/09/14 01:34:43;;;;;;;3.67;0.80;;;;;;;;;;4992350;28;20420;-72
2023/09/14 01:37:09;;;;;;;1.77;1.10;;;;;;;;;;4992464;28;20038;-72
2023/09/14 01:39:35;;;;;;;4.70;1.10;;;;;;;;;;4991572;28;20042;-72
2023/09/14 01:42:02;;;;;;;2.15;0.98;;;;;;;;;;4992406;28;20050;-72
2023/09/14 01:44:29;;;;;;;1.70;1.10;;;;;;;;;;4992229;28;20042;-72
2023/09/14 01:46:55;;;;;;;2.75;1.27;;;;;;;;;;4992080;28;20116;-72
2023/09/14 01:49:21;;;;;;;5.53;1.65;;;;;;;;;;4991805;28;20043;-72
2023/09/14 01:51:47;;;;;;;2.78;0.98;;;;;;;;;;4992364;28;20374;-72
2023/09/14 01:54:13;;;;;;;3.50;1.15;;;;;;;;;;4992515;28;20040;-72
2023/09/14 01:56:39;;;;;;;2.67;1.00;;;;;;;;;;4991868;28;20121;-71
2023/09/14 01:59:05;;;;;;;5.50;2.03;;;;;;;;;;4991902;28;20031;-71
2023/09/14 02:01:31;;;;;;;0.60;0.32;;;;;;;;;;4992748;28;20448;-71
2023/09/14 02:03:57;;;;;;;1.10;0.68;;;;;;;;;;4992375;28;20034;-72
2023/09/14 02:06:23;;;;;;;0.52;0.52;;;;;;;;;;4991714;28;20042;-72
2023/09/14 02:08:49;;;;;;;4.05;0.90;;;;;;;;;;4992008;28;20049;-72
2023/09/14 02:11:15;;;;;;;2.53;0.65;;;;;;;;;;4992439;28;20046;-72
2023/09/14 02:13:41;;;;;;;1.85;0.68;;;;;;;;;;4991927;28;20061;-72
2023/09/14 02:16:07;;;;;;;0.75;0.55;;;;;;;;;;4992079;28;20081;-72
2023/09/14 02:18:33;;;;;;;1.73;1.02;;;;;;;;;;4995361;28;20077;-72
2023/09/14 02:20:59;;;;;;;0.70;0.40;;;;;;;;;;4995868;28;20078;-71
2023/09/14 02:23:25;;;;;;;1.10;0.70;;;;;;;;;;4995354;28;20093;-72
2023/09/14 02:25:51;;;;;;;0.93;0.82;;;;;;;;;;4995298;28;20046;-72
2023/09/14 02:28:21;;;;;;;1.90;1.00;;;;;;;;;;4995590;28;20559;-72
2023/09/14 02:30:48;;;;;;;2.45;0.80;;;;;;;;;;4995397;28;20034;-72
2023/09/14 02:33:14;;;;;;;2.88;1.10;;;;;;;;;;4994093;28;20511;-72
2023/09/14 02:35:40;;;;;;;1.45;0.90;;;;;;;;;;4995218;28;20047;-72
2023/09/14 02:38:06;;;;;;;1.33;0.93;;;;;;;;;;4995434;28;20041;-72
2023/09/14 02:40:33;;;;;;;4.15;1.10;;;;;;;;;;4995131;28;20056;-72
2023/09/14 02:42:59;;;;;;;4.55;1.13;;;;;;;;;;4995323;28;20034;-72
2023/09/14 02:45:25;;;;;;;3.13;1.42;;;;;;;;;;4995103;28;20049;-72
2023/09/14 02:47:51;;;;;;;2.47;1.23;;;;;;;;;;4987019;28;20038;-72
2023/09/14 02:50:17;;;;;;;4.65;1.63;;;;;;;;;;4990310;28;20046;-72
2023/09/14 02:52:43;;;;;;;4.10;1.38;;;;;;;;;;4992017;28;20416;-72
2023/09/14 02:55:09;;;;;;;3.05;1.38;;;;;;;;;;4995138;28;20053;-72
2023/09/14 02:57:35;;;;;;;2.50;1.30;;;;;;;;;;4993355;28;20042;-72
2023/09/14 03:00:01;;;;;;;2.33;1.50;;;;;;;;;;4994963;28;20054;-72
2023/09/14 03:02:27;;;;;;;4.28;1.50;;;;;;;;;;4995259;28;20096;-72
2023/09/14 03:04:53;;;;;;;3.15;1.42;;;;;;;;;;4994317;28;20042;-72
2023/09/14 03:07:19;;;;;;;3.63;1.40;;;;;;;;;;4994937;28;20035;-72
2023/09/14 03:09:45;;;;;;;2.15;1.30;;;;;;;;;;4994634;28;20038;-72
2023/09/14 03:12:11;;;;;;;3.42;1.17;;;;;;;;;;4994383;28;20038;-72
2023/09/14 03:14:37;;;;;;;1.10;0.90;;;;;;;;;;4994836;28;20393;-72
2023/09/14 03:17:03;;;;;;;3.72;0.90;;;;;;;;;;4986650;28;20050;-72
2023/09/14 03:19:29;;;;;;;1.85;0.60;;;;;;;;;;4994826;28;20093;-72
2023/09/14 03:21:55;;;;;;;2.30;0.90;;;;;;;;;;4994186;28;20050;-72
2023/09/14 03:24:21;;;;;;;0.82;0.60;;;;;;;;;;4994278;28;20077;-72
2023/09/14 03:26:47;;;;;;;0.50;0.47;;;;;;;;;;4994198;28;20447;-72
2023/09/14 03:29:13;;;;;;;1.02;0.80;;;;;;;;;;4993298;28;20041;-71
2023/09/14 03:31:39;;;;;;;1.63;0.63;;;;;;;;;;4994879;28;20038;-71
2023/09/14 03:34:07;;;;;;;2.20;0.90;;;;;;;;;;4994497;28;20511;-71
2023/09/14 03:36:33;;;;;;;1.10;0.65;;;;;;;;;;4994228;28;20046;-71
2023/09/14 03:38:59;;;;;;;1.65;0.85;;;;;;;;;;4993653;28;20099;-72
2023/09/14 03:41:25;;;;;;;1.75;1.17;;;;;;;;;;4994557;28;20117;-72
2023/09/14 03:43:51;;;;;;;3.15;1.20;;;;;;;;;;4994366;28;20505;-72
2023/09/14 03:46:17;;;;;;;1.00;0.88;;;;;;;;;;4992132;28;20046;-72
2023/09/14 03:48:43;;;;;;;2.90;0.98;;;;;;;;;;4993952;28;20050;-72
2023/09/14 03:51:09;;;;;;;3.78;1.33;;;;;;;;;;4993811;28;20157;-72
2023/09/14 03:53:35;;;;;;;3.58;1.20;;;;;;;;;;4993647;28;20038;-72
2023/09/14 03:56:03;;;;;;;3.15;1.10;;;;;;;;;;4993157;28;20050;-72
2023/09/14 03:58:31;;;;;;;2.13;1.13;;;;;;;;;;4993946;28;20515;-72
2023/09/14 04:00:58;;;;;;;2.55;1.30;;;;;;;;;;4992409;28;20034;-72
2023/09/14 04:03:24;;;;;;;3.05;1.42;;;;;;;;;;4992695;28;20508;-72
2023/09/14 04:05:50;;;;;;;2.30;1.33;;;;;;;;;;4991951;28;20124;-72
2023/09/14 04:08:16;;;;;;;4.97;1.30;;;;;;;;;;4993625;28;20532;-72
2023/09/14 04:10:42;;;;;;;4.35;1.73;;;;;;;;;;4992895;28;20048;-72
2023/09/14 04:13:34;;;;;;;3.88;1.83;;;;;;;;;;4993697;28;20076;-72
2023/09/14 04:16:01;;;;;;;1.85;1.00;;;;;;;;;;4992800;28;20050;-72
2023/09/14 04:18:28;;;;;;;1.73;1.33;;;;;;;;;;4993463;28;20117;-72
2023/09/14 04:20:54;;;;;;;1.98;1.00;;;;;;;;;;4993146;28;20078;-72
2023/09/14 04:23:20;;;;;;;2.90;1.30;;;;;;;;;;4993531;28;20370;-72
2023/09/14 04:25:47;;;;;;;2.70;1.20;;;;;;;;;;4993294;28;20093;-72
2023/09/14 04:28:16;;;;;;;3.38;1.48;;;;;;;;;;4985331;28;20039;-72
2023/09/14 04:30:43;;;;;;;0.70;0.68;;;;;;;;;;4993276;28;20042;-72
2023/09/14 04:33:10;;;;;;;1.05;0.63;;;;;;;;;;4993414;28;20038;-72
2023/09/14 04:35:36;;;;;;;2.45;0.60;;;;;;;;;;4984632;28;20042;-72
2023/09/14 04:38:02;;;;;;;2.13;1.08;;;;;;;;;;4993155;28;20487;-72
2023/09/14 04:40:28;;;;;;;1.45;0.82;;;;;;;;;;4993215;28;20396;-72
2023/09/14 04:42:54;;;;;;;2.17;1.33;;;;;;;;;;4993397;28;20034;-72
2023/09/14 04:45:20;;;;;;;4.18;1.63;;;;;;;;;;4991666;28;20122;-72
2023/09/14 04:47:46;;;;;;;1.58;1.35;;;;;;;;;;4993188;28;20039;-72
2023/09/14 04:50:12;;;;;;;1.52;1.20;;;;;;;;;;4991428;28;20038;-72
2023/09/14 04:52:38;;;;;;;2.55;1.38;;;;;;;;;;4993024;28;20670;-72
2023/09/14 04:55:04;;;;;;;2.35;1.40;;;;;;;;;;4992628;28;20078;-72
2023/09/14 04:57:30;;;;;;;2.50;1.10;;;;;;;;;;4992956;28;20639;-72
2023/09/14 04:59:56;;;;;;;2.45;1.00;;;;;;;;;;4993074;28;20057;-72
2023/09/14 05:02:22;;;;;;;1.40;0.80;;;;;;;;;;4966927;28;20507;-72
2023/09/14 05:04:48;;;;;;;1.23;0.80;;;;;;;;;;4992460;28;20468;-72
2023/09/14 05:07:14;;;;;;;2.30;0.85;;;;;;;;;;4992502;28;20117;-72
2023/09/14 05:09:40;;;;;;;3.17;1.10;;;;;;;;;;4992707;28;20619;-72
2023/09/14 05:12:06;;;;;;;1.40;0.95;;;;;;;;;;4992679;28;20070;-72
2023/09/14 05:14:32;;;;;;;1.92;1.20;;;;;;;;;;4992967;28;20048;-72
2023/09/14 05:16:58;;;;;;;1.00;0.63;;;;;;;;;;4991777;28;20125;-72
2023/09/14 05:19:24;;;;;;;1.35;0.50;;;;;;;;;;4992615;28;20042;-72
2023/09/14 05:21:50;;;;;;;0.80;0.50;;;;;;;;;;4992607;28;20038;-72
2023/09/14 05:24:16;;;;;;;0.70;0.60;;;;;;;;;;4992881;28;20096;-72
2023/09/14 05:26:42;;;;;;;0.52;0.40;;;;;;;;;;4992038;28;20046;-72
2023/09/14 05:29:08;;;;;;;0.82;0.80;;;;;;;;;;4992808;28;20042;-71
2023/09/14 05:31:34;;;;;;;1.58;0.88;;;;;;;;;;4992868;28;20468;-71
2023/09/14 05:34:00;;;;;;;1.00;0.70;;;;;;;;;;4992218;28;20113;-72
2023/09/14 05:36:26;;;;;;;0.63;0.60;;;;;;;;;;4991977;28;20038;-72
2023/09/14 05:38:52;;;;;;;2.25;0.70;;;;;;;;;;4992667;28;20038;-72
2023/09/14 05:41:19;;;;;;;0.75;0.70;;;;;;;;;;4992730;28;20046;-72
2023/09/14 05:43:45;;;;;;;0.50;0.50;;;;;;;;;;4992522;28;20042;-72
2023/09/14 05:46:11;;;;;;;1.30;0.98;;;;;;;;;;4991798;28;20050;-72
2023/09/14 05:48:37;;;;;;;0.90;0.63;;;;;;;;;;4992402;28;20074;-72
2023/09/14 05:51:03;;;;;;;0.85;0.70;;;;;;;;;;4991809;28;20074;-72
2023/09/14 05:53:29;;;;;;;0.77;0.52;;;;;;;;;;4996465;28;20470;-72
2023/09/14 05:55:55;;;;;;;1.52;0.60;;;;;;;;;;4995783;28;20054;-72
2023/09/14 05:58:21;;;;;;;1.80;0.70;;;;;;;;;;4996347;28;20504;-72
2023/09/14 06:00:47;;;;;;;1.42;0.80;;;;;;;;;;4995411;28;20039;-72
2023/09/14 06:03:14;;;;;;;1.42;0.88;;;;;;;;;;4988042;28;20040;-72
2023/09/14 06:05:40;;;;;;;0.43;0.43;;;;;;;;;;4991203;28;20513;-72
2023/09/14 06:08:06;;;;;;;0.60;0.32;;;;;;;;;;4995493;28;20093;-72
2023/09/14 06:10:33;;;;;;;1.23;0.38;;;;;;;;;;4994860;28;20042;-72
2023/09/14 06:12:59;;;;;;;0.40;0.32;;;;;;;;;;4995741;28;20042;-72
2023/09/14 06:15:25;;;;;;;0.25;0.25;;;;;;;;;;4995738;28;20042;-72
2023/09/14 06:17:51;;;;;;;0.68;0.40;;;;;;;;;;4995252;28;20515;-72
2023/09/14 06:20:17;;;;;;;0.30;0.30;;;;;;;;;;4995963;28;20049;-72
2023/09/14 06:22:43;;;;;;;0.40;0.40;;;;;;;;;;4995569;28;20044;-71
2023/09/14 06:25:09;;;;;;;0.73;0.50;;;;;;;;;;4995052;28;20038;-72
2023/09/14 06:27:35;;;;;;;2.88;0.77;;;;;;;;;;4995480;28;20035;-72
2023/09/14 06:30:02;;;;;;;0.88;0.40;;;;;;;;;;4995540;28;20519;-72
2023/09/14 06:32:28;;;;;;;0.50;0.50;;;;;;;;;;4995722;28;20117;-72
2023/09/14 06:34:54;;;;;;;2.15;0.90;;;;;;;;;;4995240;28;20072;-72
2023/09/14 06:37:20;;;;;;;1.75;0.90;;;;;;;;;;4995095;28;20438;-72
2023/09/14 06:39:46;;;;;;;4.57;1.80;;;;;;;;;;4995550;28;20504;-72
2023/09/14 06:42:12;;;;;;;2.83;1.50;;;;;;;;;;4986659;28;20117;-72
2023/09/14 06:44:38;;;;;;;4.55;1.42;;;;;;;;;;4995305;28;20069;-72
2023/09/14 06:47:04;;;;;;;4.43;1.75;;;;;;;;;;4995194;28;20458;-72
2023/09/14 06:49:30;;;;;;;5.03;2.35;;;;;;;;;;4993924;28;20125;-72
2023/09/14 06:51:56;;;;;;;3.97;2.65;;;;;;;;;;4994547;28;20034;-72
2023/09/14 06:54:22;;;;;;;6.45;3.25;;;;;;;;;;4995442;28;20403;-72
2023/09/14 06:56:48;;;;;;;4.47;2.90;;;;;;;;;;4994372;28;20065;-72
2023/09/14 06:59:14;;;;;;;7.38;3.42;;;;;;;;;;4994781;28;20041;-72
2023/09/14 07:01:40;;;;;;;7.03;3.50;;;;;;;;;;4993696;28;20046;-72
2023/09/14 07:04:06;;;;;;;6.15;3.42;;;;;;;;;;4994048;28;20488;-72
2023/09/14 07:06:33;;;;;;;7.53;3.95;;;;;;;;;;4994130;28;20053;-72
2023/09/14 07:08:59;;;;;;;6.97;4.25;;;;;;;;;;4994999;28;20049;-72
2023/09/14 07:11:25;;;;;;;6.03;4.78;;;;;;;;;;4994846;28;20045;-71
2023/09/14 07:13:51;;;;;;;5.95;4.45;;;;;;;;;;4985991;28;20038;-72
2023/09/14 07:16:18;;;;;;;7.03;4.43;;;;;;;;;;4994517;28;20084;-72
2023/09/14 07:18:44;;;;;;;10.65;4.35;;;;;;;;;;4995050;28;20047;-72
2023/09/14 07:21:10;;;;;;;10.70;4.05;;;;;;;;;;4994937;28;20126;-72
2023/09/14 07:23:36;;;;;;;7.57;4.45;;;;;;;;;;4992961;28;20052;-72
2023/09/14 07:26:05;;;;;;;8.18;4.10;;;;;;;;;;4994256;28;20038;-72
2023/09/14 07:28:31;;;;;;;8.63;4.57;;;;;;;;;;4994077;28;20511;-72
2023/09/14 07:31:03;;;;;;;6.28;3.90;;;;;;;;;;4994260;28;20030;-71
2023/09/14 07:33:29;;;;;;;7.15;3.20;;;;;;;;;;4988339;28;20408;-71
2023/09/14 07:35:55;;;;;;;7.45;3.28;;;;;;;;;;4991094;28;20042;-71
2023/09/14 07:38:21;;;;;;;6.82;3.03;;;;;;;;;;4994158;28;20073;-72
2023/09/14 07:40:48;;;;;;;5.05;2.67;;;;;;;;;;4994279;28;20081;-72
2023/09/14 07:43:14;;;;;;;6.82;2.80;;;;;;;;;;4993917;28;20125;-72
2023/09/14 07:45:40;;;;;;;8.77;3.20;;;;;;;;;;4994148;28;20042;-72
2023/09/14 07:48:07;;;;;;;10.43;3.17;;;;;;;;;;4993797;28;20042;-72
2023/09/14 07:50:38;;;;;;;7.47;3.53;;;;;;;;;;4994205;28;20038;-72
2023/09/14 07:53:04;;;;;;;6.88;3.13;;;;;;;;;;4985703;28;20031;-72
2023/09/14 07:55:30;;;;;;;7.95;2.80;;;;;;;;;;4992571;28;20058;-72
2023/09/14 07:57:56;;;;;;;6.40;3.15;;;;;;;;;;4993122;28;20091;-72
2023/09/14 08:00:22;;;;;;;6.60;2.78;;;;;;;;;;4994154;28;20038;-72
2023/09/14 08:02:48;;;;;;;5.47;3.70;;;;;;;;;;4994010;28;20046;-72
2023/09/14 08:05:14;;;;;;;7.95;3.63;;;;;;;;;;4992780;28;20046;-72
2023/09/14 08:07:40;;;;;;;9.90;5.13;;;;;;;;;;4993296;28;20050;-72
2023/09/14 08:10:07;;;;;;;9.50;4.68;;;;;;;;;;4993933;28;20044;-72
2023/09/14 08:12:33;;;;;;;11.52;6.80;;;;;;;;;;4993243;28;20081;-72
2023/09/14 08:14:59;;;;;;;20.38;9.23;;;;;;;;;;4993292;28;20050;-72
2023/09/14 08:17:25;;;;;;;17.77;11.00;;;;;;;;;;4993556;28;20077;-72
2023/09/14 08:19:51;;;;;;;16.15;9.07;;;;;;;;;;4993197;28;20038;-72
2023/09/14 08:22:22;;;;;;;9.80;5.70;;;;;;;;;;4992879;28;20049;-72
2023/09/14 08:24:48;;;;;;;10.55;5.13;;;;;;;;;;4993746;28;20046;-72
2023/09/14 08:27:14;;;;;;;14.18;3.97;;;;;;;;;;4993345;28;20039;-72
2023/09/14 08:29:40;;;;;;;12.75;4.35;;;;;;;;;;4993166;28;20113;-72
2023/09/14 08:32:06;;;;;;;8.23;4.13;;;;;;;;;;4993352;28;20045;-72
2023/09/14 08:34:32;;;;;;;8.63;3.80;;;;;;;;;;4993098;28;20042;-72
2023/09/14 08:36:58;;;;;;;10.80;3.50;;;;;;;;;;4992758;28;20100;-72
2023/09/14 08:39:24;;;;;;;7.47;3.08;;;;;;;;;;4993321;28;20493;-72
2023/09/14 08:41:50;;;;;;;8.57;3.50;;;;;;;;;;4993347;28;20034;-72
2023/09/14 08:44:16;;;;;;;6.45;3.22;;;;;;;;;;4993136;28;20045;-72
2023/09/14 08:46:42;;;;;;;7.28;2.70;;;;;;;;;;4992496;28;20050;-72
2023/09/14 08:49:10;;;;;;;6.88;3.00;;;;;;;;;;4992788;28;20449;-72
2023/09/14 08:51:37;;;;;;;8.98;2.60;;;;;;;;;;4993438;28;20073;-72
2023/09/14 08:54:04;;;;;;;8.02;2.33;;;;;;;;;;4992573;28;20050;-72
2023/09/14 08:56:32;;;;;;;6.78;2.20;;;;;;;;;;4992823;28;20123;-72
2023/09/14 08:59:00;;;;;;;7.25;2.10;;;;;;;;;;4992692;28;20057;-72
2023/09/14 09:01:26;;;;;;;8.15;2.28;;;;;;;;;;4992862;28;20492;-72
2023/09/14 09:03:52;;;;;;;5.43;2.53;;;;;;;;;;4992164;28;20049;-72
2023/09/14 09:06:20;;;;;;;4.72;1.83;;;;;;;;;;4990163;28;20054;-72
2023/09/14 09:08:46;;;;;;;9.82;2.08;;;;;;;;;;4986699;28;20122;-72
2023/09/14 09:11:12;;;;;;;6.32;2.15;;;;;;;;;;4992284;28;20038;-72
2023/09/14 09:13:46;;;;;;;7.05;1.75;;;;;;;;;;4992600;28;20042;-72
2023/09/14 09:16:12;;;;;;;7.03;2.30;;;;;;;;;;4992459;28;20165;-72
2023/09/14 09:18:57;;;;;;;6.25;1.67;;;;;;;;;;4992730;28;20099;-72
2023/09/14 09:21:28;;;;;;;7.05;1.90;;;;;;;;;;4989493;28;20043;-72
2023/09/14 09:23:54;;;;;;;8.55;1.92;;;;;;;;;;4987546;28;20034;-72
2023/09/14 09:26:20;;;;;;;6.00;2.05;;;;;;;;;;4992733;28;20042;-72
2023/09/14 09:28:47;;;;;;;8.77;2.72;;;;;;;;;;4996079;28;20042;-72
2023/09/14 09:31:13;;;;;;;5.45;1.95;;;;;;;;;;4996757;28;20046;-72
2023/09/14 09:33:41;;;;;;;7.40;2.00;;;;;;;;;;4996947;28;20049;-72
2023/09/14 09:36:16;;;;;;;6.93;1.92;;;;;;;;;;4996484;28;20058;-72
2023/09/14 09:38:42;;;;;;;8.07;2.10;;;;;;;;;;4996194;28;20049;-72
2023/09/14 09:41:11;;;;;;;6.80;1.70;;;;;;;;;;4995047;28;20057;-70
2023/09/14 09:43:38;;;;;;;6.00;1.83;;;;;;;;;;4996422;28;20045;-70
2023/09/14 09:46:04;;;;;;;5.60;1.50;;;;;;;;;;4996339;28;20042;-70
2023/09/14 09:48:30;;;;;;;8.50;2.30;;;;;;;;;;4994813;28;20748;-70
2023/09/14 09:50:57;;;;;;;5.57;1.83;;;;;;;;;;4996404;28;20038;-70
2023/09/14 09:53:23;;;;;;;7.03;1.55;;;;;;;;;;4987516;28;20505;-70
2023/09/14 09:55:50;;;;;;;4.97;1.88;;;;;;;;;;4996173;28;20042;-70
2023/09/14 09:58:17;;;;;;;8.38;1.80;;;;;;;;;;4996148;28;20543;-70
2023/09/14 10:00:43;;;;;;;5.07;1.60;;;;;;;;;;4996111;28;20038;-71
2023/09/14 10:03:09;;;;;;;7.60;2.00;;;;;;;;;;4994641;28;20042;-71
2023/09/14 10:05:40;;;;;;;3.97;1.63;;;;;;;;;;4995651;28;20407;-71
2023/09/14 10:08:11;;;;;;;9.25;1.98;;;;;;;;;;4995855;28;20046;-71
2023/09/14 10:10:38;;;;;;;6.28;1.95;;;;;;;;;;4996036;28;20046;-71
2023/09/14 10:13:05;;;;;;;6.63;1.73;;;;;;;;;;4996122;28;20046;-71
2023/09/14 10:15:32;;;;;;;8.02;2.15;;;;;;;;;;4995534;28;20112;-71
2023/09/14 10:17:58;;;;;;;6.68;2.20;;;;;;;;;;4995365;28;20440;-71
2023/09/14 10:20:25;;;;;;;6.60;1.85;;;;;;;;;;4995657;28;20378;-71
2023/09/14 10:22:51;;;;;;;8.52;2.05;;;;;;;;;;4995742;28;20046;-71
2023/09/14 10:25:18;;;;;;;5.70;1.90;;;;;;;;;;4994144;28;20131;-71
2023/09/14 10:27:44;;;;;;;5.95;2.10;;;;;;;;;;4994154;28;20038;-71
2023/09/14 10:30:17;;;;;;;9.68;2.03;;;;;;;;;;4993944;28;20042;-71
2023/09/14 10:32:43;;;;;;;6.38;1.48;;;;;;;;;;4995815;28;20045;-71
2023/09/14 10:35:10;;;;;;;9.52;1.83;;;;;;;;;;4994773;28;20042;-71
2023/09/14 10:37:36;;;;;;;5.68;1.77;;;;;;;;;;4993878;28;20050;-71
2023/09/14 10:40:06;;;;;;;4.65;1.52;;;;;;;;;;4987223;28;20046;-71
2023/09/14 10:42:32;;;;;;;5.65;1.85;;;;;;;;;;4995210;28;20065;-72
2023/09/14 10:44:58;;;;;;;4.65;1.55;;;;;;;;;;4994894;28;20054;-72
2023/09/14 10:47:27;;;;;;;5.43;1.58;;;;;;;;;;4995172;28;20066;-72
2023/09/14 10:49:54;;;;;;;5.28;2.13;;;;;;;;;;4995099;28;20073;-72
2023/09/14 10:52:24;;;;;;;4.10;2.22;;;;;;;;;;4986534;28;20077;-71
2023/09/14 10:54:51;;;;;;;5.63;1.67;;;;;;;;;;4995313;28;20378;-71
2023/09/14 10:57:25;;;;;;;3.85;1.60;;;;;;;;;;4995002;28;20050;-71
2023/09/14 10:59:51;;;;;;;7.47;1.83;;;;;;;;;;4994667;28;20515;-71
2023/09/14 11:02:36;;;;;;;5.32;1.95;;;;;;;;;;4991387;28;20468;-71
2023/09/14 11:05:18;;;;;;;4.00;1.60;;;;;;;;;;4991839;28;20046;-71
2023/09/14 11:07:47;;;;;;;6.18;1.98;;;;;;;;;;4994111;28;20094;-71
2023/09/14 11:10:21;;;;;;;6.65;1.73;;;;;;;;;;4994551;28;20034;-71
2023/09/14 11:12:47;;;;;;;4.63;1.67;;;;;;;;;;4994955;28;20042;-71
2023/09/14 11:15:17;;;;;;;3.25;1.33;;;;;;;;;;4984938;28;20043;-71
2023/09/14 11:17:44;;;;;;;4.72;1.60;;;;;;;;;;4994970;28;20078;-71
2023/09/14 11:20:30;;;;;;;5.13;1.95;;;;;;;;;;4994627;28;20056;-71
2023/09/14 11:23:03;;;;;;;5.85;1.90;;;;;;;;;;4994141;28;20046;-71
2023/09/14 11:25:33;;;;;;;4.53;1.52;;;;;;;;;;4994228;28;20058;-71
2023/09/14 11:28:00;;;;;;;4.20;1.40;;;;;;;;;;4994754;28;20077;-71
2023/09/14 11:30:27;;;;;;;5.50;2.10;;;;;;;;;;4994391;28;20034;-71
2023/09/14 11:32:57;;;;;;;6.88;1.85;;;;;;;;;;4987284;28;20543;-71
2023/09/14 11:35:33;;;;;;;7.00;1.87;;;;;;;;;;4993535;28;20034;-71
2023/09/14 11:38:03;;;;;;;6.43;1.85;;;;;;;;;;4994670;28;20052;-71
2023/09/14 11:40:33;;;;;;;7.18;1.70;;;;;;;;;;4994001;28;20443;-71
2023/09/14 11:43:10;;;;;;;5.38;1.50;;;;;;;;;;4994476;28;20046;-71
2023/09/14 11:45:39;;;;;;;8.05;2.05;;;;;;;;;;4986906;28;20493;-71
2023/09/14 11:48:13;;;;;;;9.93;2.10;;;;;;;;;;4993585;28;20109;-71
2023/09/14 11:50:41;;;;;;;3.47;1.42;;;;;;;;;;4991949;28;20042;-71
2023/09/14 11:53:08;;;;;;;5.57;1.50;;;;;;;;;;4994226;28;20042;-71
2023/09/14 11:55:34;;;;;;;4.90;1.60;;;;;;;;;;4994078;28;20043;-71
2023/09/14 11:58:01;;;;;;;4.90;1.60;;;;;;;;;;4993491;28;20074;-71
2023/09/14 12:00:36;;;;;;;3.80;1.70;;;;;;;;;;4985787;28;20042;-71
2023/09/14 12:03:02;;;;;;;4.05;1.48;;;;;;;;;;4994260;28;20111;-71
2023/09/14 12:05:28;;;;;;;4.38;1.88;;;;;;;;;;4993618;28;20500;-71
2023/09/14 12:07:55;;;;;;;4.50;1.88;;;;;;;;;;4993498;28;20037;-71
2023/09/14 12:10:23;;;;;;;4.95;1.80;;;;;;;;;;4993420;28;20057;-71
2023/09/14 12:12:49;;;;;;;4.72;1.50;;;;;;;;;;4993883;28;20045;-71
2023/09/14 12:15:21;;;;;;;6.05;2.00;;;;;;;;;;4984477;28;20046;-71
2023/09/14 12:17:51;;;;;;;6.53;1.90;;;;;;;;;;4993767;28;20042;-71
2023/09/14 12:20:18;;;;;;;5.82;1.63;;;;;;;;;;4992475;28;20133;-71
2023/09/14 12:22:44;;;;;;;5.40;1.70;;;;;;;;;;4993598;28;20400;-71
2023/09/14 12:25:11;;;;;;;6.90;1.88;;;;;;;;;;4992791;28;20077;-71
2023/09/14 12:27:37;;;;;;;5.32;1.85;;;;;;;;;;4993302;28;20154;-71
2023/09/14 12:30:05;;;;;;;6.13;1.98;;;;;;;;;;4993490;28;20026;-71
2023/09/14 12:32:32;;;;;;;5.43;1.85;;;;;;;;;;4992847;28;20488;-71
2023/09/14 12:34:59;;;;;;;5.53;2.22;;;;;;;;;;4993448;28;20046;-71
2023/09/14 12:37:25;;;;;;;4.20;1.98;;;;;;;;;;4992776;28;20121;-71
2023/09/14 12:39:51;;;;;;;5.70;1.80;;;;;;;;;;4992926;28;20034;-71
2023/09/14 12:42:19;;;;;;;5.25;1.60;;;;;;;;;;4993003;28;20034;-71
2023/09/14 12:44:45;;;;;;;4.70;1.65;;;;;;;;;;4985191;28;20046;-71
2023/09/14 12:47:12;;;;;;;6.05;1.58;;;;;;;;;;4992455;28;20061;-71
2023/09/14 12:49:38;;;;;;;8.23;2.40;;;;;;;;;;4993182;28;20125;-70
2023/09/14 12:52:06;;;;;;;6.28;1.80;;;;;;;;;;4992805;28;20122;-71
2023/09/14 12:54:32;;;;;;;7.05;2.10;;;;;;;;;;4993229;28;20034;-71
2023/09/14 12:56:58;;;;;;;5.88;1.75;;;;;;;;;;4992273;28;20100;-71
2023/09/14 12:59:24;;;;;;;6.32;2.13;;;;;;;;;;4993166;28;20041;-71
2023/09/14 13:01:50;;;;;;;6.13;1.80;;;;;;;;;;4992565;28;20404;-71
2023/09/14 13:04:16;;;;;;;6.00;2.00;;;;;;;;;;4992779;28;20041;-71
2023/09/14 13:06:42;;;;;;;6.60;2.03;;;;;;;;;;4992297;28;20039;-71
2023/09/14 13:09:08;;;;;;;3.28;1.70;;;;;;;;;;4993206;28;20056;-71
2023/09/14 13:11:36;;;;;;;8.23;1.90;;;;;;;;;;4992753;28;20113;-71
2023/09/14 13:14:03;;;;;;;8.50;2.30;;;;;;;;;;4992724;28;20041;-71
2023/09/14 13:16:29;;;;;;;5.60;1.90;;;;;;;;;;4989319;28;20132;-71
2023/09/14 13:18:55;;;;;;;6.93;2.10;;;;;;;;;;4988140;28;20034;-71
2023/09/14 13:21:21;;;;;;;7.25;2.17;;;;;;;;;;4990013;28;20053;-71
2023/09/14 13:23:47;;;;;;;6.38;1.95;;;;;;;;;;4985475;28;20121;-71
2023/09/14 13:26:13;;;;;;;3.63;1.60;;;;;;;;;;4992246;28;20481;-71
2023/09/14 13:28:39;;;;;;;6.45;2.13;;;;;;;;;;4993203;28;20031;-71
2023/09/14 13:31:05;;;;;;;3.92;1.92;;;;;;;;;;4992087;28;20472;-71
2023/09/14 13:33:31;;;;;;;6.10;1.98;;;;;;;;;;4992722;28;20030;-71
2023/09/14 13:36:00;;;;;;;7.68;2.17;;;;;;;;;;4992378;28;20534;-71
2023/09/14 13:38:27;;;;;;;4.82;2.08;;;;;;;;;;4991913;28;20077;-71
2023/09/14 13:40:53;;;;;;;5.30;2.03;;;;;;;;;;4992843;28;20385;-71
2023/09/14 13:43:19;;;;;;;7.82;2.15;;;;;;;;;;4992424;28;20038;-71
2023/09/14 13:45:45;;;;;;;4.45;2.10;;;;;;;;;;4992529;28;20041;-71
2023/09/14 13:48:11;;;;;;;4.68;1.83;;;;;;;;;;4992133;28;20101;-71
2023/09/14 13:50:37;;;;;;;5.53;2.00;;;;;;;;;;4992553;28;20093;-71
2023/09/14 13:53:08;;;;;;;3.90;1.65;;;;;;;;;;4991996;28;20102;-71
2023/09/14 13:55:33;;;;;;;4.55;1.80;;;;;;;;;;4992126;28;20039;-71
2023/09/14 13:57:59;;;;;;;4.60;2.35;;;;;;;;;;4992248;28;20046;-71
2023/09/14 14:00:25;;;;;;;6.38;2.13;;;;;;;;;;4992630;28;20042;-71
2023/09/14 14:02:55;;;;;;;5.53;2.17;;;;;;;;;;4992226;28;20104;-71
2023/09/14 14:05:21;;;;;;;4.25;2.00;;;;;;;;;;4992127;28;20046;-71
2023/09/14 14:07:47;;;;;;;8.48;2.50;;;;;;;;;;4991697;28;20030;-71
2023/09/14 14:10:14;;;;;;;6.13;2.10;;;;;;;;;;4991947;28;20121;-71
2023/09/14 14:12:40;;;;;;;4.53;1.85;;;;;;;;;;4992811;28;20433;-71
2023/09/14 14:15:06;;;;;;;7.25;2.30;;;;;;;;;;4995840;28;20078;-71
2023/09/14 14:17:32;;;;;;;5.80;1.88;;;;;;;;;;4995900;28;20034;-71
2023/09/14 14:19:58;;;;;;;4.13;2.10;;;;;;;;;;4995627;28;20453;-71
2023/09/14 14:22:24;;;;;;;7.70;2.35;;;;;;;;;;4995398;28;20042;-71
2023/09/14 14:24:51;;;;;;;6.10;2.45;;;;;;;;;;4996022;28;20404;-71
2023/09/14 14:27:18;;;;;;;4.50;2.38;;;;;;;;;;4995089;28;20042;-71
2023/09/14 14:29:44;;;;;;;5.80;2.00;;;;;;;;;;4995845;28;20077;-71
2023/09/14 14:32:10;;;;;;;8.07;2.42;;;;;;;;;;4995371;28;20518;-71
2023/09/14 14:34:36;;;;;;;7.45;2.58;;;;;;;;;;4995958;28;20039;-71
2023/09/14 14:37:02;;;;;;;6.88;2.33;;;;;;;;;;4994787;28;20456;-71
2023/09/14 14:39:29;;;;;;;5.38;2.10;;;;;;;;;;4995772;28;20046;-71
2023/09/14 14:41:55;;;;;;;7.72;2.35;;;;;;;;;;4993671;28;20451;-71